createdAt,value
2017-12-21T00:00:20.335Z,16.00
2017-12-21T00:01:23.198Z,12.00
2017-12-21T00:02:26.064Z,15.50
2017-12-21T00:03:28.961Z,12.00
2017-12-21T00:04:31.886Z,15.00
2017-12-21T00:05:34.802Z,13.00
2017-12-21T00:06:38.039Z,14.00
2017-12-21T00:07:41.011Z,17.00
2017-12-21T00:08:43.954Z,14.50
2017-12-21T00:09:46.896Z,16.50
2017-12-21T00:10:49.797Z,12.00
2017-12-21T00:11:52.783Z,15.50
2017-12-21T00:12:56.052Z,14.00
2017-12-21T00:13:58.942Z,13.00
2017-12-21T00:15:01.908Z,13.00
2017-12-21T00:16:04.980Z,11.00
2017-12-21T00:17:07.895Z,14.00
2017-12-21T00:18:10.826Z,14.00
2017-12-21T00:19:14.129Z,15.50
2017-12-21T00:20:17.019Z,12.50
2017-12-21T00:21:19.929Z,13.00
2017-12-21T00:22:22.897Z,14.00
2017-12-21T00:23:25.808Z,14.00
2017-12-21T00:24:28.688Z,14.50
2017-12-21T00:25:31.975Z,12.50
2017-12-21T00:26:34.875Z,16.00
2017-12-21T00:27:37.772Z,14.00
2017-12-21T00:28:40.683Z,15.00
2017-12-21T00:29:43.509Z,12.00
2017-12-21T00:30:46.378Z,12.00
2017-12-21T00:31:49.578Z,14.00
2017-12-21T00:32:52.364Z,14.00
2017-12-21T00:33:55.472Z,12.00
2017-12-21T00:34:58.619Z,17.00
2017-12-21T00:36:02.246Z,14.00
2017-12-21T00:37:05.113Z,16.00
2017-12-21T00:38:08.319Z,12.50
2017-12-21T00:39:11.208Z,14.50
2017-12-21T00:40:14.064Z,12.00
2017-12-21T00:41:16.963Z,13.50
2017-12-21T00:42:21.082Z,16.00
2017-12-21T00:43:23.948Z,14.50
2017-12-21T00:44:27.219Z,17.50
2017-12-21T00:45:30.051Z,17.50
2017-12-21T00:46:32.993Z,17.00
2017-12-21T00:47:35.899Z,16.00
2017-12-21T00:48:38.772Z,12.50
2017-12-21T00:49:41.648Z,18.00
2017-12-21T00:50:44.827Z,14.00
2017-12-21T00:51:48.764Z,15.00
2017-12-21T00:52:51.691Z,12.00
2017-12-21T00:53:54.580Z,14.00
2017-12-21T00:54:57.447Z,10.50
2017-12-21T00:56:00.618Z,16.50
2017-12-21T00:57:03.900Z,13.50
2017-12-21T00:58:06.782Z,13.00
2017-12-21T00:59:09.625Z,12.00
2017-12-21T01:00:12.556Z,15.00
2017-12-21T01:01:15.432Z,14.00
2017-12-21T01:02:18.299Z,13.50
2017-12-21T01:03:21.576Z,12.00
2017-12-21T01:04:24.416Z,10.00
2017-12-21T01:05:27.306Z,10.50
2017-12-21T01:06:30.224Z,14.00
2017-12-21T01:07:33.116Z,12.50
2017-12-21T01:08:35.929Z,10.50
2017-12-21T01:09:39.124Z,12.50
2017-12-21T01:10:41.923Z,13.50
2017-12-21T01:11:44.726Z,11.00
2017-12-21T01:12:47.550Z,12.00
2017-12-21T01:13:50.352Z,9.50
2017-12-21T01:14:53.221Z,14.00
2017-12-21T01:15:56.343Z,10.50
2017-12-21T01:16:59.145Z,13.00
2017-12-21T01:18:01.973Z,12.50
2017-12-21T01:19:04.844Z,13.50
2017-12-21T01:20:07.715Z,10.50
2017-12-21T01:21:10.614Z,14.00
2017-12-21T01:22:13.910Z,10.50
2017-12-21T01:23:16.866Z,10.00
2017-12-21T01:24:19.773Z,10.50
2017-12-21T01:25:22.645Z,11.00
2017-12-21T01:26:25.504Z,12.00
2017-12-21T01:27:28.407Z,13.00
2017-12-21T01:28:31.706Z,10.00
2017-12-21T01:29:34.637Z,10.00
2017-12-21T01:30:37.547Z,11.00
2017-12-21T01:31:40.366Z,12.00
2017-12-21T01:32:43.217Z,11.00
2017-12-21T01:33:46.125Z,11.50
2017-12-21T01:34:50.669Z,12.00
2017-12-21T01:35:54.536Z,9.50
2017-12-21T01:36:57.451Z,11.50
2017-12-21T01:38:00.322Z,12.50
2017-12-21T01:39:03.213Z,10.00
2017-12-21T01:40:06.117Z,10.50
2017-12-21T01:41:09.486Z,10.50
2017-12-21T01:42:12.384Z,12.00
2017-12-21T01:43:15.276Z,10.00
2017-12-21T01:44:18.182Z,10.00
2017-12-21T01:45:21.116Z,10.00
2017-12-21T01:46:24.024Z,13.50
2017-12-21T01:47:28.550Z,13.00
2017-12-21T01:48:31.710Z,10.00
2017-12-21T01:49:34.720Z,9.50
2017-12-21T01:50:37.869Z,9.00
2017-12-21T01:51:40.981Z,10.50
2017-12-21T01:52:43.833Z,11.50
2017-12-21T01:53:47.018Z,9.50
2017-12-21T01:54:49.862Z,10.00
2017-12-21T01:55:52.745Z,10.00
2017-12-21T01:56:55.636Z,12.00
2017-12-21T01:57:58.494Z,10.50
2017-12-21T01:59:01.374Z,11.00
2017-12-21T02:00:04.582Z,8.00
2017-12-21T02:01:07.461Z,8.50
2017-12-21T02:02:10.325Z,15.50
2017-12-21T02:03:13.199Z,10.00
2017-12-21T02:04:16.081Z,13.50
2017-12-21T02:05:18.956Z,10.50
2017-12-21T02:06:22.275Z,16.00
2017-12-21T02:07:25.147Z,10.00
2017-12-21T02:08:28.025Z,12.00
2017-12-21T02:09:30.900Z,11.50
2017-12-21T02:10:33.791Z,12.00
2017-12-21T02:11:36.689Z,13.50
2017-12-21T02:12:39.578Z,12.00
2017-12-21T02:13:42.463Z,10.50
2017-12-21T02:14:45.367Z,12.00
2017-12-21T02:15:48.239Z,14.50
2017-12-21T02:16:51.184Z,16.00
2017-12-21T02:17:54.457Z,14.50
2017-12-21T02:18:57.326Z,10.00
2017-12-21T02:20:00.209Z,11.50
2017-12-21T02:21:03.175Z,12.00
2017-12-21T02:22:06.021Z,12.00
2017-12-21T02:23:08.937Z,12.50
2017-12-21T02:24:12.228Z,10.50
2017-12-21T02:25:15.150Z,12.00
2017-12-21T02:26:17.949Z,12.50
2017-12-21T02:27:20.785Z,14.00
2017-12-21T02:28:23.640Z,12.00
2017-12-21T02:29:26.537Z,14.00
2017-12-21T02:30:29.880Z,10.50
2017-12-21T02:31:32.720Z,13.50
2017-12-21T02:32:35.597Z,12.00
2017-12-21T02:33:39.435Z,12.00
2017-12-21T02:34:42.322Z,10.00
2017-12-21T02:35:45.209Z,12.00
2017-12-21T02:36:49.069Z,13.50
2017-12-21T02:37:51.943Z,9.50
2017-12-21T02:38:54.817Z,12.00
2017-12-21T02:39:57.781Z,9.50
2017-12-21T02:41:00.621Z,10.50
2017-12-21T02:42:03.514Z,10.00
2017-12-21T02:43:06.818Z,10.00
2017-12-21T02:44:09.668Z,11.50
2017-12-21T02:45:12.529Z,11.00
2017-12-21T02:46:15.392Z,12.00
2017-12-21T02:47:18.253Z,10.00
2017-12-21T02:48:21.108Z,10.50
2017-12-21T02:49:24.449Z,11.50
2017-12-21T02:50:27.326Z,6.50
2017-12-21T02:51:30.172Z,9.50
2017-12-21T02:52:33.650Z,13.00
2017-12-21T02:53:36.537Z,11.00
2017-12-21T02:54:39.458Z,13.00
2017-12-21T02:55:42.686Z,10.00
2017-12-21T02:56:45.556Z,10.50
2017-12-21T02:57:48.468Z,10.00
2017-12-21T02:58:51.366Z,13.00
2017-12-21T02:59:54.241Z,13.50
2017-12-21T03:00:57.146Z,11.00
2017-12-21T03:02:00.379Z,12.00
2017-12-21T03:03:03.286Z,14.50
2017-12-21T03:04:06.133Z,11.00
2017-12-21T03:05:08.990Z,13.50
2017-12-21T03:06:11.790Z,16.00
2017-12-21T03:07:14.614Z,13.00
2017-12-21T03:08:17.871Z,12.50
2017-12-21T03:09:20.775Z,12.50
2017-12-21T03:10:23.580Z,13.50
2017-12-21T03:11:26.411Z,12.50
2017-12-21T03:12:29.229Z,12.00
2017-12-21T03:13:32.050Z,12.00
2017-12-21T03:14:35.190Z,13.00
2017-12-21T03:15:38.052Z,14.00
2017-12-21T03:16:41.242Z,10.50
2017-12-21T03:17:44.111Z,14.00
2017-12-21T03:18:46.873Z,11.50
2017-12-21T03:19:49.686Z,13.00
2017-12-21T03:20:52.821Z,14.00
2017-12-21T03:21:55.631Z,11.00
2017-12-21T03:22:58.490Z,12.00
2017-12-21T03:24:01.394Z,10.00
2017-12-21T03:25:04.257Z,11.50
2017-12-21T03:26:07.257Z,10.00
2017-12-21T03:27:10.583Z,13.00
2017-12-21T03:28:13.549Z,11.50
2017-12-21T03:29:16.346Z,8.50
2017-12-21T03:30:19.155Z,10.50
2017-12-21T03:31:21.953Z,12.00
2017-12-21T03:32:24.798Z,12.00
2017-12-21T03:33:27.917Z,10.50
2017-12-21T03:34:30.886Z,9.00
2017-12-21T03:35:33.838Z,11.50
2017-12-21T03:36:37.740Z,9.50
2017-12-21T03:37:40.656Z,8.50
2017-12-21T03:38:43.641Z,9.50
2017-12-21T03:39:46.849Z,8.00
2017-12-21T03:40:49.662Z,10.00
2017-12-21T03:41:52.451Z,12.00
2017-12-21T03:42:55.246Z,8.00
2017-12-21T03:43:58.127Z,10.50
2017-12-21T03:45:01.024Z,8.50
2017-12-21T03:46:04.327Z,9.50
2017-12-21T03:47:07.252Z,10.50
2017-12-21T03:48:10.148Z,10.00
2017-12-21T03:49:13.192Z,9.00
2017-12-21T03:50:16.137Z,9.00
2017-12-21T03:51:19.089Z,10.00
2017-12-21T03:52:22.370Z,9.50
2017-12-21T03:53:25.288Z,8.50
2017-12-21T03:54:28.134Z,13.00
2017-12-21T03:55:31.041Z,10.50
2017-12-21T03:56:34.188Z,12.50
2017-12-21T03:57:37.135Z,11.50
2017-12-21T03:58:40.473Z,12.00
2017-12-21T03:59:43.367Z,11.00
2017-12-21T04:00:46.342Z,11.00
2017-12-21T04:01:49.237Z,14.00
2017-12-21T04:02:52.136Z,10.50
2017-12-21T04:03:55.175Z,9.50
2017-12-21T04:04:58.550Z,10.50
2017-12-21T04:06:01.462Z,12.50
2017-12-21T04:07:04.395Z,10.00
2017-12-21T04:08:07.283Z,9.50
2017-12-21T04:09:10.122Z,10.00
2017-12-21T04:10:12.958Z,12.00
2017-12-21T04:11:16.283Z,11.00
2017-12-21T04:12:19.291Z,8.00
2017-12-21T04:13:22.162Z,10.00
2017-12-21T04:14:25.066Z,11.50
2017-12-21T04:15:27.982Z,10.00
2017-12-21T04:16:30.916Z,10.50
2017-12-21T04:17:33.805Z,10.00
2017-12-21T04:18:36.747Z,10.00
2017-12-21T04:19:39.646Z,11.50
2017-12-21T04:20:42.557Z,12.50
2017-12-21T04:21:45.471Z,10.50
2017-12-21T04:22:48.345Z,11.50
2017-12-21T04:23:51.226Z,12.00
2017-12-21T04:24:54.152Z,11.50
2017-12-21T04:25:57.044Z,11.00
2017-12-21T04:26:59.988Z,10.00
2017-12-21T04:28:03.328Z,11.50
2017-12-21T04:29:06.201Z,10.50
2017-12-21T04:30:09.110Z,13.00
2017-12-21T04:31:12.257Z,10.00
2017-12-21T04:32:15.135Z,10.00
2017-12-21T04:33:17.998Z,9.50
2017-12-21T04:34:21.171Z,9.50
2017-12-21T04:35:24.038Z,11.50
2017-12-21T04:36:26.923Z,11.00
2017-12-21T04:37:29.887Z,11.00
2017-12-21T04:38:32.746Z,9.50
2017-12-21T04:39:35.624Z,12.00
2017-12-21T04:40:38.870Z,11.50
2017-12-21T04:41:41.739Z,15.00
2017-12-21T04:42:44.647Z,13.00
2017-12-21T04:43:47.520Z,12.50
2017-12-21T04:44:50.367Z,12.00
2017-12-21T04:45:53.300Z,11.00
2017-12-21T04:46:56.609Z,8.00
2017-12-21T04:47:59.504Z,12.00
2017-12-21T04:49:02.339Z,9.00
2017-12-21T04:50:05.251Z,13.00
2017-12-21T04:51:08.125Z,10.00
2017-12-21T04:52:11.063Z,11.00
2017-12-21T04:53:14.332Z,11.00
2017-12-21T04:54:18.147Z,10.00
2017-12-21T04:55:20.921Z,11.00
2017-12-21T04:56:23.737Z,9.50
2017-12-21T04:57:26.582Z,13.00
2017-12-21T04:58:29.435Z,11.00
2017-12-21T04:59:32.608Z,10.00
2017-12-21T05:00:35.469Z,11.50
2017-12-21T05:01:38.316Z,10.50
2017-12-21T05:02:41.210Z,11.50
2017-12-21T05:03:44.170Z,9.50
2017-12-21T05:04:47.036Z,13.00
2017-12-21T05:05:50.228Z,10.50
2017-12-21T05:06:53.075Z,10.00
2017-12-21T05:07:56.008Z,8.50
2017-12-21T05:08:58.888Z,12.00
2017-12-21T05:10:01.763Z,8.50
2017-12-21T05:11:04.740Z,9.50
2017-12-21T05:12:07.659Z,11.50
2017-12-21T05:13:10.498Z,10.00
2017-12-21T05:14:13.355Z,13.00
2017-12-21T05:15:16.287Z,9.50
2017-12-21T05:16:19.169Z,7.50
2017-12-21T05:17:22.404Z,10.00
2017-12-21T05:18:25.256Z,10.50
2017-12-21T05:19:28.173Z,10.00
2017-12-21T05:20:31.092Z,12.00
2017-12-21T05:21:33.946Z,11.50
2017-12-21T05:22:36.860Z,10.00
2017-12-21T05:23:40.065Z,11.50
2017-12-21T05:24:42.938Z,12.00
2017-12-21T05:25:45.816Z,10.50
2017-12-21T05:26:48.733Z,8.00
2017-12-21T05:27:51.653Z,8.00
2017-12-21T05:28:54.531Z,10.00
2017-12-21T05:29:57.854Z,10.00
2017-12-21T05:31:00.677Z,10.50
2017-12-21T05:32:03.527Z,11.50
2017-12-21T05:33:06.377Z,13.50
2017-12-21T05:34:09.256Z,11.50
2017-12-21T05:35:12.169Z,10.50
2017-12-21T05:36:15.564Z,11.00
2017-12-21T05:37:18.490Z,10.50
2017-12-21T05:38:22.335Z,12.00
2017-12-21T05:39:25.281Z,10.00
2017-12-21T05:40:28.234Z,11.00
2017-12-21T05:41:31.210Z,10.00
2017-12-21T05:42:34.416Z,11.50
2017-12-21T05:43:37.356Z,10.00
2017-12-21T05:44:40.237Z,10.00
2017-12-21T05:45:43.320Z,10.00
2017-12-21T05:46:46.152Z,10.00
2017-12-21T05:47:49.900Z,13.00
2017-12-21T05:48:53.088Z,12.00
2017-12-21T05:49:56.058Z,10.00
2017-12-21T05:50:59.138Z,10.00
2017-12-21T05:52:02.108Z,11.00
2017-12-21T05:53:04.983Z,11.50
2017-12-21T05:54:07.951Z,11.50
2017-12-21T05:55:11.203Z,8.50
2017-12-21T05:56:14.108Z,10.50
2017-12-21T05:57:17.072Z,10.50
2017-12-21T05:58:19.992Z,10.50
2017-12-21T05:59:22.866Z,10.00
2017-12-21T06:00:25.729Z,9.50
2017-12-21T06:01:28.571Z,8.00
2017-12-21T06:02:31.407Z,11.50
2017-12-21T06:03:34.263Z,10.00
2017-12-21T06:04:37.212Z,12.00
2017-12-21T06:05:40.159Z,12.50
2017-12-21T06:06:43.443Z,11.50
2017-12-21T06:07:46.353Z,11.50
2017-12-21T06:08:49.253Z,10.00
2017-12-21T06:09:52.173Z,14.50
2017-12-21T06:10:55.748Z,10.00
2017-12-21T06:11:58.651Z,11.50
2017-12-21T06:13:02.097Z,13.00
2017-12-21T06:14:05.009Z,11.50
2017-12-21T06:15:07.990Z,10.50
2017-12-21T06:16:10.856Z,12.00
2017-12-21T06:17:13.753Z,9.50
2017-12-21T06:18:16.593Z,12.00
2017-12-21T06:19:19.844Z,15.50
2017-12-21T06:20:22.768Z,12.00
2017-12-21T06:21:25.740Z,12.50
2017-12-21T06:22:28.658Z,13.50
2017-12-21T06:23:32.426Z,12.00
2017-12-21T06:24:35.214Z,11.50
2017-12-21T06:25:38.056Z,13.50
2017-12-21T06:26:40.927Z,12.00
2017-12-21T06:27:43.847Z,13.50
2017-12-21T06:28:46.724Z,13.00
2017-12-21T06:29:49.636Z,15.50
2017-12-21T06:30:53.641Z,14.00
2017-12-21T06:31:56.744Z,15.50
2017-12-21T06:32:59.670Z,15.50
2017-12-21T06:34:02.489Z,13.50
2017-12-21T06:35:05.354Z,14.50
2017-12-21T06:36:08.186Z,14.00
2017-12-21T06:37:12.104Z,19.00
2017-12-21T06:38:15.015Z,14.00
2017-12-21T06:39:17.841Z,13.00
2017-12-21T06:40:20.643Z,14.50
2017-12-21T06:41:23.503Z,13.50
2017-12-21T06:42:26.340Z,12.00
2017-12-21T06:43:29.606Z,14.50
2017-12-21T06:44:32.443Z,12.00
2017-12-21T06:45:35.348Z,14.50
2017-12-21T06:46:38.228Z,12.00
2017-12-21T06:47:41.095Z,13.50
2017-12-21T06:48:44.013Z,15.50
2017-12-21T06:49:47.334Z,14.00
2017-12-21T06:50:50.209Z,15.50
2017-12-21T06:51:53.095Z,17.00
2017-12-21T06:52:56.017Z,14.50
2017-12-21T06:53:58.888Z,14.00
2017-12-21T06:55:01.764Z,16.00
2017-12-21T06:56:05.030Z,20.00
2017-12-21T06:57:07.965Z,15.50
2017-12-21T06:58:10.840Z,17.00
2017-12-21T06:59:13.782Z,12.00
2017-12-21T07:00:17.015Z,16.50
2017-12-21T07:01:19.896Z,14.00
2017-12-21T07:02:23.343Z,14.00
2017-12-21T07:03:26.250Z,14.00
2017-12-21T07:04:29.202Z,16.00
2017-12-21T07:05:32.108Z,14.00
2017-12-21T07:06:35.027Z,18.00
2017-12-21T07:07:37.922Z,18.00
2017-12-21T07:08:41.405Z,16.00
2017-12-21T07:09:44.295Z,17.00
2017-12-21T07:10:47.385Z,17.50
2017-12-21T07:11:50.304Z,12.00
2017-12-21T07:12:53.432Z,15.00
2017-12-21T07:13:56.297Z,13.50
2017-12-21T07:14:59.753Z,16.50
2017-12-21T07:16:02.684Z,15.50
2017-12-21T07:17:05.571Z,11.50
2017-12-21T07:18:08.467Z,13.00
2017-12-21T07:19:11.466Z,14.00
2017-12-21T07:20:14.328Z,15.50
2017-12-21T07:21:17.682Z,12.00
2017-12-21T07:22:20.602Z,13.50
2017-12-21T07:23:23.510Z,14.00
2017-12-21T07:24:26.861Z,17.50
2017-12-21T07:25:29.729Z,17.00
2017-12-21T07:26:32.622Z,14.00
2017-12-21T07:27:35.953Z,16.50
2017-12-21T07:28:38.835Z,15.00
2017-12-21T07:29:41.747Z,17.50
2017-12-21T07:30:44.729Z,16.50
2017-12-21T07:31:47.577Z,14.50
2017-12-21T07:32:50.531Z,12.50
2017-12-21T07:33:53.981Z,13.50
2017-12-21T07:34:56.874Z,16.00
2017-12-21T07:35:59.800Z,17.00
2017-12-21T07:37:02.710Z,17.50
2017-12-21T07:38:05.602Z,14.00
2017-12-21T07:39:08.540Z,14.00
2017-12-21T07:40:11.736Z,16.00
2017-12-21T07:41:14.613Z,16.00
2017-12-21T07:42:17.486Z,14.00
2017-12-21T07:43:20.397Z,14.00
2017-12-21T07:44:23.312Z,14.00
2017-12-21T07:45:26.244Z,13.50
2017-12-21T07:46:29.487Z,13.00
2017-12-21T07:47:32.842Z,13.00
2017-12-21T07:48:35.822Z,13.50
2017-12-21T07:49:38.726Z,12.00
2017-12-21T07:50:41.700Z,16.00
2017-12-21T07:51:44.584Z,11.00
2017-12-21T07:52:47.819Z,12.50
2017-12-21T07:53:50.685Z,12.00
2017-12-21T07:54:54.290Z,14.50
2017-12-21T07:55:57.256Z,8.00
2017-12-21T07:57:00.196Z,12.50
2017-12-21T07:58:03.104Z,12.50
2017-12-21T07:59:06.359Z,14.00
2017-12-21T08:00:09.328Z,15.00
2017-12-21T08:01:12.274Z,14.00
2017-12-21T08:02:15.288Z,16.00
2017-12-21T08:03:18.179Z,16.00
2017-12-21T08:04:21.763Z,17.00
2017-12-21T08:05:24.976Z,17.00
2017-12-21T08:06:27.939Z,14.50
2017-12-21T08:07:30.929Z,12.00
2017-12-21T08:08:34.144Z,16.00
2017-12-21T08:09:37.068Z,13.50
2017-12-21T08:10:39.969Z,15.50
2017-12-21T08:11:43.290Z,16.00
2017-12-21T08:12:46.233Z,14.50
2017-12-21T08:13:49.139Z,16.00
2017-12-21T08:14:52.021Z,13.00
2017-12-21T08:15:54.959Z,14.00
2017-12-21T08:16:57.906Z,14.50
2017-12-21T08:18:01.088Z,15.50
2017-12-21T08:19:03.978Z,14.50
2017-12-21T08:20:06.990Z,13.50
2017-12-21T08:21:09.909Z,12.00
2017-12-21T08:22:12.853Z,14.00
2017-12-21T08:23:15.763Z,12.00
2017-12-21T08:24:18.988Z,12.00
2017-12-21T08:25:21.934Z,10.50
2017-12-21T08:26:24.908Z,12.50
2017-12-21T08:27:27.819Z,12.00
2017-12-21T08:28:30.764Z,10.00
2017-12-21T08:29:33.639Z,14.50
2017-12-21T08:30:36.918Z,15.00
2017-12-21T08:31:39.850Z,10.00
2017-12-21T08:32:42.758Z,12.50
2017-12-21T08:33:45.675Z,13.50
2017-12-21T08:34:48.619Z,13.50
2017-12-21T08:35:51.628Z,11.50
2017-12-21T08:36:54.923Z,14.50
2017-12-21T08:37:57.861Z,14.50
2017-12-21T08:39:00.788Z,16.00
2017-12-21T08:40:03.720Z,17.00
2017-12-21T08:41:06.695Z,14.00
2017-12-21T08:42:09.615Z,14.00
2017-12-21T08:43:13.031Z,16.00
2017-12-21T08:44:16.431Z,16.50
2017-12-21T08:45:19.371Z,17.50
2017-12-21T08:46:22.280Z,16.00
2017-12-21T08:47:25.232Z,20.00
2017-12-21T08:48:28.175Z,18.50
2017-12-21T08:49:31.656Z,23.00
2017-12-21T08:50:34.572Z,21.00
2017-12-21T08:51:37.542Z,18.50
2017-12-21T08:52:40.584Z,16.00
2017-12-21T08:53:43.537Z,18.00
2017-12-21T08:54:46.496Z,21.50
2017-12-21T08:55:49.847Z,18.00
2017-12-21T08:56:52.869Z,16.00
2017-12-21T08:57:55.736Z,18.50
2017-12-21T08:58:58.637Z,18.00
2017-12-21T09:00:01.553Z,18.00
2017-12-21T09:01:04.448Z,19.50
2017-12-21T09:02:07.784Z,20.00
2017-12-21T09:03:10.725Z,21.00
2017-12-21T09:04:13.644Z,21.00
2017-12-21T09:05:17.471Z,19.50
2017-12-21T09:06:20.393Z,19.00
2017-12-21T09:07:23.299Z,25.50
2017-12-21T09:08:26.701Z,18.50
2017-12-21T09:09:29.612Z,19.50
2017-12-21T09:10:32.580Z,19.50
2017-12-21T09:11:35.512Z,19.50
2017-12-21T09:12:38.414Z,18.00
2017-12-21T09:13:41.348Z,19.00
2017-12-21T09:14:44.868Z,20.00
2017-12-21T09:15:47.858Z,16.50
2017-12-21T09:16:50.935Z,18.00
2017-12-21T09:17:53.733Z,18.50
2017-12-21T09:18:56.567Z,20.00
2017-12-21T09:19:59.536Z,19.00
2017-12-21T09:21:02.930Z,22.00
2017-12-21T09:22:05.877Z,23.00
2017-12-21T09:23:08.801Z,18.50
2017-12-21T09:24:11.756Z,20.50
2017-12-21T09:25:14.685Z,20.00
2017-12-21T09:26:17.716Z,16.00
2017-12-21T09:27:21.505Z,22.00
2017-12-21T09:28:25.341Z,18.50
2017-12-21T09:29:28.300Z,19.50
2017-12-21T09:30:32.243Z,21.50
2017-12-21T09:31:35.185Z,20.50
2017-12-21T09:32:38.136Z,19.00
2017-12-21T09:33:41.546Z,20.00
2017-12-21T09:34:44.455Z,19.00
2017-12-21T09:35:47.462Z,19.00
2017-12-21T09:36:51.214Z,19.50
2017-12-21T09:37:56.813Z,18.50
2017-12-21T09:38:59.734Z,22.50
2017-12-21T09:40:03.254Z,17.00
2017-12-21T09:41:06.184Z,19.00
2017-12-21T09:42:09.148Z,21.00
2017-12-21T09:43:12.150Z,21.50
2017-12-21T09:44:15.172Z,25.00
2017-12-21T09:45:18.160Z,25.50
2017-12-21T09:46:22.898Z,20.50
2017-12-21T09:47:25.889Z,20.50
2017-12-21T09:48:28.784Z,17.50
2017-12-21T09:49:31.699Z,18.50
2017-12-21T09:50:34.600Z,22.00
2017-12-21T09:51:37.477Z,17.50
2017-12-21T09:52:40.916Z,17.00
2017-12-21T09:53:44.531Z,20.50
2017-12-21T09:54:47.474Z,20.00
2017-12-21T09:55:50.477Z,20.50
2017-12-21T09:56:53.445Z,20.00
2017-12-21T09:57:56.375Z,19.00
2017-12-21T09:58:59.302Z,18.50
2017-12-21T10:00:02.310Z,15.50
2017-12-21T10:01:05.214Z,17.50
2017-12-21T10:02:08.146Z,15.50
2017-12-21T10:03:10.997Z,16.00
2017-12-21T10:04:14.276Z,15.00
2017-12-21T10:05:17.176Z,17.00
2017-12-21T10:06:20.181Z,16.00
2017-12-21T10:07:23.131Z,17.50
2017-12-21T10:08:26.073Z,17.50
2017-12-21T10:09:28.956Z,14.00
2017-12-21T10:10:32.227Z,15.50
2017-12-21T10:11:35.160Z,17.00
2017-12-21T10:12:38.056Z,15.50
2017-12-21T10:13:40.964Z,18.00
2017-12-21T10:14:43.876Z,18.00
2017-12-21T10:15:46.894Z,19.00
2017-12-21T10:16:50.255Z,19.00
2017-12-21T10:17:53.246Z,15.00
2017-12-21T10:18:56.217Z,20.00
2017-12-21T10:19:59.207Z,16.00
2017-12-21T10:21:02.135Z,17.00
2017-12-21T10:22:05.086Z,18.50
2017-12-21T10:23:08.399Z,18.00
2017-12-21T10:24:11.648Z,18.50
2017-12-21T10:25:14.698Z,14.50
2017-12-21T10:26:17.622Z,18.00
2017-12-21T10:28:31.181Z,19.50
2017-12-21T10:29:34.480Z,17.50
2017-12-21T10:30:37.442Z,21.50
2017-12-21T10:31:40.351Z,16.50
2017-12-21T10:32:43.531Z,19.00
2017-12-21T10:33:46.479Z,18.00
2017-12-21T10:34:49.418Z,17.00
2017-12-21T10:35:52.444Z,18.50
2017-12-21T10:36:55.422Z,19.00
2017-12-21T10:37:58.376Z,21.50
2017-12-21T10:39:01.407Z,20.00
2017-12-21T10:40:04.372Z,18.00
2017-12-21T10:41:07.757Z,19.50
2017-12-21T10:42:10.687Z,18.00
2017-12-21T10:43:15.034Z,17.00
2017-12-21T10:44:18.023Z,14.00
2017-12-21T10:45:20.984Z,17.00
2017-12-21T10:46:23.925Z,16.00
2017-12-21T10:47:27.376Z,17.00
2017-12-21T10:48:30.312Z,22.50
2017-12-21T10:49:33.259Z,17.50
2017-12-21T10:50:36.256Z,20.00
2017-12-21T10:51:39.324Z,19.50
2017-12-21T10:52:42.231Z,21.50
2017-12-21T10:53:45.558Z,19.00
2017-12-21T10:54:48.508Z,18.50
2017-12-21T10:55:51.465Z,21.00
2017-12-21T10:56:54.381Z,20.00
2017-12-21T10:57:57.692Z,19.00
2017-12-21T10:59:00.661Z,21.50
2017-12-21T11:00:04.012Z,22.00
2017-12-21T11:01:06.902Z,21.00
2017-12-21T11:02:10.313Z,20.00
2017-12-21T11:03:13.240Z,23.00
2017-12-21T11:04:16.104Z,19.50
2017-12-21T11:05:19.123Z,22.00
2017-12-21T11:06:22.363Z,22.00
2017-12-21T11:07:25.267Z,18.50
2017-12-21T11:08:28.149Z,19.50
2017-12-21T11:09:31.097Z,20.00
2017-12-21T11:10:34.070Z,23.50
2017-12-21T11:11:36.981Z,23.00
2017-12-21T11:12:40.252Z,23.50
2017-12-21T11:13:43.168Z,22.00
2017-12-21T11:14:46.131Z,21.50
2017-12-21T11:15:49.025Z,22.00
2017-12-21T11:16:51.933Z,24.00
2017-12-21T11:17:54.797Z,20.50
2017-12-21T11:18:58.129Z,21.50
2017-12-21T11:20:01.078Z,26.50
2017-12-21T11:21:04.009Z,35.00
2017-12-21T11:22:07.000Z,24.00
2017-12-21T11:23:10.018Z,26.00
2017-12-21T11:24:12.972Z,20.50
2017-12-21T11:25:16.308Z,25.00
2017-12-21T11:26:19.213Z,22.50
2017-12-21T11:27:22.111Z,25.00
2017-12-21T11:28:25.072Z,22.00
2017-12-21T11:29:28.080Z,24.00
2017-12-21T11:30:31.090Z,24.00
2017-12-21T11:31:35.859Z,24.00
2017-12-21T11:32:38.917Z,22.00
2017-12-21T11:33:41.877Z,20.50
2017-12-21T11:34:44.701Z,17.00
2017-12-21T11:35:47.657Z,18.50
2017-12-21T11:36:51.383Z,21.00
2017-12-21T11:37:55.844Z,18.50
2017-12-21T11:38:58.838Z,22.50
2017-12-21T11:40:01.734Z,22.00
2017-12-21T11:41:05.344Z,19.50
2017-12-21T11:42:08.278Z,23.50
2017-12-21T11:43:11.534Z,22.50
2017-12-21T11:44:14.455Z,25.00
2017-12-21T11:45:17.410Z,19.50
2017-12-21T11:46:20.274Z,23.00
2017-12-21T11:47:23.196Z,22.00
2017-12-21T11:48:26.149Z,21.50
2017-12-21T11:49:29.440Z,15.50
2017-12-21T11:50:32.336Z,31.00
2017-12-21T11:51:35.421Z,16.50
2017-12-21T11:52:38.334Z,16.00
2017-12-21T11:53:41.272Z,21.50
2017-12-21T11:54:44.141Z,23.00
2017-12-21T11:55:47.343Z,20.50
2017-12-21T11:56:50.230Z,17.50
2017-12-21T11:57:53.160Z,14.00
2017-12-21T11:58:56.120Z,12.50
2017-12-21T11:59:59.052Z,17.00
2017-12-21T12:01:01.964Z,17.50
2017-12-21T12:02:05.151Z,18.50
2017-12-21T12:03:08.189Z,18.50
2017-12-21T12:04:11.122Z,17.50
2017-12-21T12:05:14.052Z,20.00
2017-12-21T12:06:16.998Z,17.00
2017-12-21T12:07:19.960Z,20.00
2017-12-21T12:08:23.292Z,23.50
2017-12-21T12:09:26.245Z,23.00
2017-12-21T12:10:29.169Z,21.00
2017-12-21T12:11:32.066Z,19.50
2017-12-21T12:12:34.956Z,22.00
2017-12-21T12:13:37.903Z,21.50
2017-12-21T12:14:41.426Z,18.50
2017-12-21T12:15:44.330Z,18.00
2017-12-21T12:16:47.269Z,19.50
2017-12-21T12:17:50.281Z,18.00
2017-12-21T12:18:53.223Z,14.00
2017-12-21T12:19:57.180Z,16.00
2017-12-21T12:21:00.395Z,21.50
2017-12-21T12:22:03.276Z,20.00
2017-12-21T12:23:06.241Z,20.50
2017-12-21T12:24:09.215Z,17.50
2017-12-21T12:25:12.194Z,16.00
2017-12-21T12:26:15.201Z,17.50
2017-12-21T12:27:18.572Z,21.00
2017-12-21T12:28:21.440Z,20.00
2017-12-21T12:29:24.471Z,18.50
2017-12-21T12:30:27.411Z,18.00
2017-12-21T12:31:30.322Z,18.00
2017-12-21T12:32:33.258Z,19.50
2017-12-21T12:33:36.895Z,21.00
2017-12-21T12:34:39.855Z,22.00
2017-12-21T12:35:42.777Z,40.00
2017-12-21T12:36:45.760Z,46.00
2017-12-21T12:37:48.659Z,26.50
2017-12-21T12:38:51.651Z,20.00
2017-12-21T12:39:54.944Z,18.50
2017-12-21T12:40:58.230Z,16.00
2017-12-21T12:42:01.375Z,15.50
2017-12-21T12:43:04.376Z,13.50
2017-12-21T12:44:07.284Z,20.00
2017-12-21T12:45:11.247Z,19.00
2017-12-21T12:46:14.558Z,16.00
2017-12-21T12:47:18.357Z,17.00
2017-12-21T12:48:21.353Z,15.00
2017-12-21T12:49:24.332Z,14.00
2017-12-21T12:50:27.279Z,14.50
2017-12-21T12:51:30.437Z,14.00
2017-12-21T12:52:33.612Z,12.50
2017-12-21T12:53:36.566Z,14.50
2017-12-21T12:54:39.551Z,15.00
2017-12-21T12:55:42.462Z,19.00
2017-12-21T12:56:45.439Z,15.50
2017-12-21T12:57:48.409Z,19.00
2017-12-21T12:58:51.858Z,17.50
2017-12-21T12:59:54.797Z,20.50
2017-12-21T13:00:57.801Z,18.50
2017-12-21T13:02:00.948Z,14.50
2017-12-21T13:03:03.868Z,18.50
2017-12-21T13:04:06.754Z,16.00
2017-12-21T13:05:10.016Z,19.50
2017-12-21T13:06:12.936Z,15.50
2017-12-21T13:07:15.866Z,14.50
2017-12-21T13:08:18.846Z,31.50
2017-12-21T13:09:21.775Z,21.00
2017-12-21T13:10:24.668Z,39.00
2017-12-21T13:11:28.137Z,20.50
2017-12-21T13:12:31.156Z,26.50
2017-12-21T13:13:34.238Z,30.50
2017-12-21T13:14:37.253Z,18.00
2017-12-21T13:15:40.193Z,14.50
2017-12-21T13:16:43.088Z,17.50
2017-12-21T13:17:46.346Z,18.00
2017-12-21T13:18:49.305Z,21.50
2017-12-21T13:19:52.235Z,14.00
2017-12-21T13:20:57.322Z,14.50
2017-12-21T13:22:00.274Z,18.50
2017-12-21T13:23:03.381Z,16.50
2017-12-21T13:24:06.849Z,20.00
2017-12-21T13:25:09.771Z,21.00
2017-12-21T13:26:12.806Z,22.00
2017-12-21T13:27:15.746Z,24.50
2017-12-21T13:28:18.704Z,24.00
2017-12-21T13:29:21.641Z,28.50
2017-12-21T13:30:25.081Z,19.50
2017-12-21T13:31:28.043Z,19.50
2017-12-21T13:32:30.878Z,27.50
2017-12-21T13:33:33.990Z,19.50
2017-12-21T13:34:36.893Z,20.50